Time;durP1;ratioP1;P1;durP2;ratioP2;P2;SDS_P1;SDS_P2;PMS_P1;PMS_P2;Temp;Humidity;BMP_temperature;BMP_pressure;BME280_temperature;BME280_humidity;BME280_pressure;Samples;Min_cycle;Max_cycle;Signal;HPM_P1;HPM_P2
2023/05/31 00:00:32;;;;;;;6.00;4.40;;;;;;;11.07;87.71;101008.45;179948;1263;45923;-56
2023/05/31 00:04:53;;;;;;;8.40;4.30;;;;;;;11.03;87.32;101009.33;179862;1265;46009;-56
2023/05/31 00:08:56;;;;;;;8.20;4.20;;;;;;;10.95;87.28;101008.56;179748;1264;59511;-55
2023/05/31 00:12:57;;;;;;;7.20;5.10;;;;;;;10.89;87.97;101008.30;179684;1265;45953;-56
2023/05/31 00:17:58;;;;;;;8.10;4.40;;;;;;;10.85;87.98;101005.75;179563;1263;44281;-56
2023/05/31 00:22:00;;;;;;;9.20;4.70;;;;;;;10.80;88.09;101008.96;179662;1264;44021;-56
2023/05/31 00:26:01;;;;;;;11.60;4.70;;;;;;;10.75;88.29;101008.82;179604;1265;44056;-56
2023/05/31 00:30:04;;;;;;;8.00;4.70;;;;;;;10.71;88.57;101011.71;179709;1269;57403;-56
2023/05/31 00:34:06;;;;;;;13.40;5.20;;;;;;;10.69;89.14;101012.02;179633;1267;44620;-55
2023/05/31 00:38:08;;;;;;;9.30;5.30;;;;;;;10.67;89.02;101005.77;179771;1263;45951;-56
2023/05/31 00:42:10;;;;;;;16.30;5.50;;;;;;;10.60;88.86;101004.69;179695;1265;45911;-55
2023/05/31 00:46:32;;;;;;;5.90;5.20;;;;;;;10.54;88.62;101007.04;179767;1265;43829;-56
2023/05/31 00:50:35;;;;;;;7.30;4.20;;;;;;;10.48;88.70;101008.55;179758;1265;57070;-55
2023/05/31 00:55:05;;;;;;;5.70;4.60;;;;;;;10.43;88.31;101007.95;179673;1265;46064;-56
2023/05/31 00:59:06;;;;;;;6.60;4.70;;;;;;;10.38;88.79;101006.70;179605;1267;46164;-56
2023/05/31 01:03:08;;;;;;;8.40;5.90;;;;;;;10.34;90.01;101006.94;179613;1267;46135;-56
2023/05/31 01:07:10;;;;;;;9.70;5.50;;;;;;;10.34;90.17;101011.95;179548;1269;45982;-55
2023/05/31 01:11:54;;;;;;;10.10;6.00;;;;;;;10.23;91.72;101021.56;179675;1265;58540;-56
2023/05/31 01:16:08;;;;;;;5.80;3.80;;;;;;;10.00;93.19;101028.95;179630;1269;46161;-55
2023/05/31 01:20:24;;;;;;;7.80;4.70;;;;;;;9.95;92.24;101027.70;179683;1265;45048;-55
2023/05/31 01:24:45;;;;;;;8.70;5.50;;;;;;;9.89;92.64;101031.45;179679;1263;45884;-56
2023/05/31 01:28:51;;;;;;;11.60;5.50;;;;;;;9.75;91.97;101033.08;179603;1266;45907;-55
2023/05/31 01:32:58;;;;;;;10.80;5.60;;;;;;;9.71;91.72;101035.13;179647;1266;58144;-55
2023/05/31 01:37:00;;;;;;;5.00;4.50;;;;;;;9.67;92.51;101034.48;179691;1263;46036;-55
2023/05/31 01:41:07;;;;;;;8.30;4.30;;;;;;;9.69;92.17;101031.89;179729;1263;43531;-55
2023/05/31 01:45:12;;;;;;;6.70;5.40;;;;;;;9.70;92.22;101033.98;179739;1263;45936;-55
2023/05/31 01:49:14;;;;;;;5.10;4.20;;;;;;;9.66;91.88;101040.23;179644;1265;44603;-55
2023/05/31 01:53:15;;;;;;;8.60;3.90;;;;;;;9.62;91.66;101035.20;179529;1266;58279;-55
2023/05/31 01:57:20;;;;;;;8.80;5.00;;;;;;;9.62;91.97;101036.78;179516;1266;46060;-54
2023/05/31 02:01:22;;;;;;;6.30;5.30;;;;;;;9.65;91.78;101033.90;179750;1264;43660;-55
2023/05/31 02:05:24;;;;;;;10.70;5.30;;;;;;;9.63;91.61;101035.80;179459;1265;45972;-55
2023/05/31 02:09:25;;;;;;;7.10;4.40;;;;;;;9.62;92.18;101035.20;179583;1264;43795;-54
2023/05/31 02:13:28;;;;;;;5.60;4.90;;;;;;;9.63;91.75;101039.36;179554;1264;43885;-55
2023/05/31 02:17:35;;;;;;;9.10;5.40;;;;;;;9.61;92.25;101040.20;179562;1265;46042;-55
2023/05/31 02:21:36;;;;;;;9.90;4.60;;;;;;;9.58;91.90;101041.96;179618;1265;45985;-55
2023/05/31 02:25:38;;;;;;;7.00;4.30;;;;;;;9.53;92.11;101050.09;179612;1266;43703;-55
2023/05/31 02:29:40;;;;;;;7.50;4.20;;;;;;;9.47;91.30;101052.25;179571;1269;46071;-56
2023/05/31 02:33:41;;;;;;;7.50;5.10;;;;;;;9.44;91.93;101056.89;179676;1264;57316;-55
2023/05/31 02:37:45;;;;;;;14.50;5.20;;;;;;;9.37;91.65;101055.59;179577;1265;45958;-56
2023/05/31 02:41:48;;;;;;;7.40;5.10;;;;;;;9.34;92.23;101054.33;179681;1266;44872;-56
2023/05/31 02:45:50;;;;;;;32.30;9.50;;;;;;;9.36;92.65;101057.60;179483;1265;45049;-54
2023/05/31 02:49:52;;;;;;;48.00;12.20;;;;;;;9.37;93.00;101056.94;179588;1264;46079;-56
2023/05/31 02:54:20;;;;;;;9.90;4.90;;;;;;;9.38;93.44;101056.04;179649;1264;59192;-55
2023/05/31 02:58:22;;;;;;;9.80;6.00;;;;;;;9.37;93.48;101051.30;179577;1265;46117;-55
2023/05/31 03:02:24;;;;;;;9.20;5.50;;;;;;;9.40;94.25;101051.30;179805;1265;44647;-56
2023/05/31 03:06:25;;;;;;;9.90;5.50;;;;;;;9.46;95.04;101050.90;179598;1265;46084;-56
2023/05/31 03:10:27;;;;;;;6.10;5.00;;;;;;;9.53;95.57;101056.29;179651;1265;43751;-56
2023/05/31 03:14:28;;;;;;;8.60;5.60;;;;;;;9.62;96.37;101060.52;179662;1265;58611;-56
2023/05/31 03:18:32;;;;;;;15.60;6.60;;;;;;;9.73;97.03;101061.00;179737;1269;45992;-55
2023/05/31 03:22:37;;;;;;;7.60;4.70;;;;;;;9.83;97.06;101062.12;179770;1264;43529;-53
2023/05/31 03:26:41;;;;;;;10.40;4.70;;;;;;;9.94;97.26;101061.06;179694;1266;44992;-54
2023/05/31 03:30:43;;;;;;;12.70;6.90;;;;;;;10.05;97.10;101056.27;179846;1267;43827;-54
2023/05/31 03:34:44;;;;;;;39.90;11.60;;;;;;;10.16;96.96;101059.22;179603;1265;59021;-54
2023/05/31 03:39:07;;;;;;;11.90;5.20;;;;;;;10.29;96.75;101061.56;179667;1266;46033;-58
2023/05/31 03:43:10;;;;;;;9.70;6.10;;;;;;;10.33;96.71;101062.90;179699;1264;45393;-53
2023/05/31 03:47:17;;;;;;;6.40;5.60;;;;;;;10.37;96.82;101062.63;179748;1265;45896;-54
2023/05/31 03:51:19;;;;;;;12.60;6.20;;;;;;;10.45;96.54;101062.66;179782;1265;45956;-55
2023/05/31 03:55:30;;;;;;;10.10;5.00;;;;;;;10.56;96.51;101065.09;179763;1265;58640;-51
2023/05/31 03:59:36;;;;;;;11.50;6.00;;;;;;;10.71;96.31;101064.06;179750;1264;46068;-53
2023/05/31 04:03:39;;;;;;;9.70;6.20;;;;;;;10.88;96.50;101062.11;180019;1264;43893;-52
2023/05/31 04:07:50;;;;;;;11.50;6.50;;;;;;;11.03;96.08;101064.10;179941;1265;43647;-54
2023/05/31 04:11:51;;;;;;;5.70;4.00;;;;;;;11.26;97.18;101066.20;180025;1264;43578;-53
2023/05/31 04:15:53;;;;;;;31.00;10.50;;;;;;;11.63;97.01;101067.27;179868;1266;58435;-53
2023/05/31 04:19:54;;;;;;;8.70;5.50;;;;;;;12.05;96.46;101067.73;179844;1265;44985;-54
2023/05/31 04:23:56;;;;;;;12.20;7.80;;;;;;;12.94;97.16;101064.30;179972;1264;46580;-55
2023/05/31 04:28:21;;;;;;;16.10;8.00;;;;;;;14.28;95.26;101068.05;180120;1264;44632;-55
2023/05/31 04:32:25;;;;;;;20.10;9.00;;;;;;;15.64;87.42;101060.66;179847;1264;45979;-55
2023/05/31 04:36:38;;;;;;;18.70;8.70;;;;;;;16.69;78.38;101058.65;180034;1266;58346;-55
2023/05/31 04:40:42;;;;;;;12.70;8.70;;;;;;;17.23;75.58;101057.17;180192;1265;43794;-55
2023/05/31 04:49:50;;;;;;;10.30;6.20;;;;;;;18.82;68.93;101062.27;179973;1264;46106;-56
2023/05/31 04:53:56;;;;;;;8.20;5.40;;;;;;;19.33;67.88;101056.50;179987;1265;44975;-56
2023/05/31 04:57:57;;;;;;;11.50;6.20;;;;;;;19.70;66.87;101057.61;179771;1266;44754;-56
2023/05/31 05:01:59;;;;;;;7.70;5.60;;;;;;;20.05;66.12;101058.55;179763;1266;46039;-56
2023/05/31 05:06:16;;;;;;;8.50;4.90;;;;;;;20.46;63.94;101062.45;179946;1265;45908;-56
2023/05/31 05:10:18;;;;;;;14.40;6.20;;;;;;;20.69;63.35;101057.29;180108;1265;46077;-56
2023/05/31 05:14:20;;;;;;;17.20;5.70;;;;;;;20.93;61.98;101058.17;179981;1264;44808;-56
2023/05/31 05:18:21;;;;;;;15.40;6.10;;;;;;;21.27;60.27;101049.99;179926;1267;57329;-56
2023/05/31 05:22:24;;;;;;;9.90;5.00;;;;;;;21.42;59.50;101046.96;179825;1265;45946;-56
2023/05/31 05:26:26;;;;;;;9.30;5.20;;;;;;;21.38;59.83;101040.46;180111;1264;43759;-56
2023/05/31 05:30:38;;;;;;;7.70;5.60;;;;;;;21.30;60.04;101039.19;180088;1265;45910;-56
2023/05/31 05:34:41;;;;;;;7.40;4.80;;;;;;;21.35;60.67;101041.54;180001;1263;45851;-56
2023/05/31 05:38:46;;;;;;;14.10;4.80;;;;;;;21.19;60.79;101041.75;179589;1264;82892;-89
2023/05/31 05:42:48;;;;;;;;;;;;;;;20.84;61.60;101042.79;177537;1268;46130;-88
2023/05/31 05:46:50;;;;;;;11.40;6.50;;;;;;;21.01;60.61;101042.86;177558;1264;45857;-87
2023/05/31 06:04:31;;;;;;;9.90;4.60;;;;;;;20.47;63.96;101052.14;158704;1266;44811;-56
2023/05/31 06:08:32;;;;;;;8.60;4.90;;;;;;;20.67;63.59;101052.09;179841;1266;45936;-56
2023/05/31 06:12:34;;;;;;;8.90;5.30;;;;;;;20.77;59.20;101052.43;179896;1267;43604;-56
2023/05/31 06:16:37;;;;;;;10.80;4.90;;;;;;;20.85;57.69;101051.58;179989;1267;43550;-57
2023/05/31 06:20:41;;;;;;;10.50;6.10;;;;;;;20.55;60.44;101055.04;179801;1267;59273;-56
2023/05/31 06:24:42;;;;;;;8.90;4.60;;;;;;;20.74;61.63;101051.93;180041;1265;43593;-56
2023/05/31 06:28:45;;;;;;;4.30;3.90;;;;;;;21.18;59.38;101044.19;179970;1266;46054;-56
2023/05/31 06:32:47;;;;;;;9.90;5.90;;;;;;;21.19;58.21;101039.65;180052;1266;45925;-56
2023/05/31 06:36:49;;;;;;;7.30;5.50;;;;;;;21.03;57.22;101041.06;179968;1266;45074;-56
2023/05/31 06:40:54;;;;;;;10.30;5.20;;;;;;;21.09;58.82;101039.27;180022;1267;58388;-57
2023/05/31 06:44:56;;;;;;;10.10;5.30;;;;;;;21.53;59.17;101037.05;179889;1265;43610;-57
2023/05/31 06:49:02;;;;;;;9.20;4.80;;;;;;;22.10;58.70;101035.13;179589;1267;176471;-57
2023/05/31 06:53:20;;;;;;;9.40;4.80;;;;;;;22.27;59.43;101034.04;179893;1266;43672;-56
2023/05/31 06:57:23;;;;;;;11.30;4.40;;;;;;;22.28;58.45;101041.36;179887;1265;43821;-57
2023/05/31 07:01:31;;;;;;;17.90;5.50;;;;;;;22.52;58.70;101036.34;179931;1267;58419;-56
2023/05/31 07:05:57;;;;;;;11.40;5.10;;;;;;;22.85;58.55;101029.37;179968;1266;45843;-57
2023/05/31 07:10:16;;;;;;;19.40;5.00;;;;;;;22.93;58.12;101028.08;179945;1265;45058;-57
2023/05/31 07:14:32;;;;;;;6.50;4.80;;;;;;;23.26;57.76;101022.30;179875;1267;46046;-57
2023/05/31 07:18:35;;;;;;;5.00;3.90;;;;;;;23.46;57.76;101027.36;179961;1267;44929;-56
2023/05/31 07:22:42;;;;;;;6.10;3.80;;;;;;;23.67;56.61;101024.77;179842;1266;58177;-57
2023/05/31 07:26:56;;;;;;;7.70;4.30;;;;;;;23.80;54.38;101024.34;179778;1266;44060;-57
2023/05/31 07:31:03;;;;;;;8.50;4.10;;;;;;;24.06;54.58;101020.39;179945;1266;45239;-57
2023/05/31 07:35:27;;;;;;;9.40;4.00;;;;;;;24.17;55.72;101014.67;179860;1265;45918;-57
2023/05/31 07:39:52;;;;;;;7.20;3.50;;;;;;;24.22;54.80;101015.82;179822;1265;43686;-57
2023/05/31 07:44:00;;;;;;;9.60;4.00;;;;;;;24.17;54.87;101013.80;179885;1267;58578;-57
2023/05/31 07:48:07;;;;;;;;;;;;;;;24.09;54.36;101008.60;179905;1265;45023;-57
2023/05/31 07:52:21;;;;;;;5.70;3.30;;;;;;;24.06;56.70;101007.90;179711;1266;44558;-57
2023/05/31 08:01:16;;;;;;;10.50;4.00;;;;;;;24.36;54.66;100997.15;178994;1265;84879;-88
2023/05/31 08:05:21;;;;;;;5.80;3.10;;;;;;;24.62;53.79;100990.38;177829;1266;59480;-88
2023/05/31 08:09:23;;;;;;;4.20;3.00;;;;;;;25.09;55.39;100984.98;178101;1267;46062;-88
2023/05/31 08:13:29;;;;;;;6.90;3.90;;;;;;;25.40;52.76;100981.92;178057;1267;46152;-89
2023/05/31 08:17:31;;;;;;;;;;;;;;;25.55;53.22;100985.44;177743;1269;46311;-89
2023/05/31 08:21:40;;;;;;;3.80;2.70;;;;;;;25.73;50.90;100987.49;178395;1264;45895;-91
2023/05/31 08:25:43;;;;;;;6.40;2.40;;;;;;;25.88;49.29;100986.94;178509;1267;59811;-88
2023/05/31 08:29:46;;;;;;;6.90;2.50;;;;;;;25.90;49.92;100988.83;178121;1265;45963;-88
2023/05/31 08:33:58;;;;;;;6.60;2.30;;;;;;;25.85;49.54;100990.67;177995;1265;45310;-88
2023/05/31 08:38:00;;;;;;;4.00;1.70;;;;;;;25.79;48.20;100987.40;177842;1265;45911;-88
2023/05/31 08:42:07;;;;;;;5.70;2.50;;;;;;;25.51;48.84;100984.66;178098;1265;46039;-88
2023/05/31 08:46:11;;;;;;;4.40;1.40;;;;;;;25.21;49.91;100983.60;178045;1264;58489;-90
2023/05/31 08:50:17;;;;;;;6.10;1.80;;;;;;;24.81;47.86;100984.44;177837;1265;46084;-89
2023/05/31 08:54:21;;;;;;;2.30;1.40;;;;;;;24.77;48.69;100983.59;178352;1264;44037;-89
2023/05/31 08:58:25;;;;;;;3.60;1.70;;;;;;;24.72;48.11;100983.98;177759;1265;46128;-90
2023/05/31 09:02:28;;;;;;;2.30;1.10;;;;;;;24.80;48.01;100982.80;177671;1268;45940;-90
2023/05/31 09:06:31;;;;;;;2.10;1.60;;;;;;;24.69;45.74;100984.52;177818;1264;61045;-90
2023/05/31 09:10:33;;;;;;;4.30;1.60;;;;;;;24.60;45.89;100980.36;178262;1265;45930;-90
2023/05/31 09:14:36;;;;;;;3.90;2.00;;;;;;;24.58;44.36;100974.95;177961;1265;44839;-90
2023/05/31 09:18:39;;;;;;;7.70;2.20;;;;;;;24.69;45.78;100975.64;177720;1264;46081;-89
2023/05/31 09:22:42;;;;;;;8.30;1.80;;;;;;;24.64;45.65;100970.00;177934;1265;45564;-90
2023/05/31 09:26:53;;;;;;;3.40;1.80;;;;;;;24.75;48.22;100966.09;177479;1265;59315;-90
2023/05/31 09:31:07;;;;;;;6.00;1.90;;;;;;;24.93;48.40;100962.39;177594;1265;45995;-88
2023/05/31 09:35:11;;;;;;;3.40;1.10;;;;;;;25.12;49.24;100960.77;177659;1265;46142;-90
2023/05/31 09:39:14;;;;;;;4.70;2.00;;;;;;;25.25;49.80;100958.69;177232;1265;44086;-90
2023/05/31 09:43:16;;;;;;;3.30;1.90;;;;;;;25.28;46.99;100953.42;177310;1267;46105;-90
2023/05/31 09:47:27;;;;;;;2.90;1.40;;;;;;;25.30;47.88;100952.79;177241;1270;59571;-90
2023/05/31 09:51:32;;;;;;;6.00;2.70;;;;;;;24.99;45.76;100952.65;177406;1265;45967;-90
2023/05/31 09:55:40;;;;;;;3.00;1.00;;;;;;;24.90;46.49;100946.69;177861;1265;46014;-89
2023/05/31 09:59:43;;;;;;;4.50;1.80;;;;;;;24.82;45.67;100949.50;177356;1267;46658;-90
2023/05/31 10:03:49;;;;;;;4.90;2.20;;;;;;;24.60;45.70;100950.44;177433;1266;46003;-89
2023/05/31 10:07:54;;;;;;;1.80;1.40;;;;;;;24.49;46.46;100941.84;177556;1264;58285;-89
2023/05/31 10:11:59;;;;;;;4.00;1.60;;;;;;;24.46;45.90;100938.70;178096;1265;45915;-89
2023/05/31 10:16:07;;;;;;;3.40;1.20;;;;;;;24.43;45.75;100935.23;177444;1265;46126;-89
2023/05/31 10:20:15;;;;;;;3.30;1.00;;;;;;;24.40;50.83;100931.20;177275;1265;45939;-89
2023/05/31 10:24:26;;;;;;;2.80;1.60;;;;;;;24.36;49.63;100920.47;177386;1266;44763;-90
2023/05/31 10:28:35;;;;;;;2.90;1.40;;;;;;;24.28;48.36;100917.14;177242;1267;58335;-90
2023/05/31 10:32:48;;;;;;;5.70;1.80;;;;;;;24.24;49.85;100922.09;177454;1265;46057;-89
2023/05/31 10:36:54;;;;;;;3.40;1.20;;;;;;;24.09;47.68;100921.13;177172;1265;46418;-89
2023/05/31 10:41:01;;;;;;;;;;;;;;;24.12;49.18;100915.09;177572;1264;45916;-89
2023/05/31 10:45:22;;;;;;;5.60;2.00;;;;;;;24.15;46.96;100910.75;177433;1265;45793;-89
2023/05/31 10:49:25;;;;;;;2.70;1.40;;;;;;;24.27;49.69;100903.96;177293;1265;58416;-89
2023/05/31 10:53:35;;;;;;;5.90;1.60;;;;;;;24.49;48.78;100904.63;176987;1264;46094;-89
2023/05/31 10:57:37;;;;;;;3.00;1.80;;;;;;;24.68;46.55;100900.89;177169;1269;46264;-89
2023/05/31 11:01:39;;;;;;;3.00;1.70;;;;;;;24.78;46.67;100900.20;177354;1265;45967;-89
2023/05/31 11:05:54;;;;;;;5.50;1.90;;;;;;;24.78;48.88;100899.15;177094;1265;46028;-88
2023/05/31 11:09:59;;;;;;;7.20;2.20;;;;;;;24.80;48.58;100892.42;177121;1265;59448;-88
2023/05/31 11:14:05;;;;;;;3.10;1.60;;;;;;;24.79;49.12;100888.83;176997;1265;46189;-88
2023/05/31 11:18:09;;;;;;;2.20;1.40;;;;;;;24.87;49.23;100883.27;177203;1265;45978;-88
2023/05/31 11:22:18;;;;;;;2.00;1.30;;;;;;;24.85;50.22;100874.77;176994;1267;46283;-88
2023/05/31 11:26:20;;;;;;;2.70;1.30;;;;;;;24.99;51.07;100876.04;177277;1264;45126;-89
2023/05/31 11:30:22;;;;;;;4.70;1.50;;;;;;;25.08;47.86;100867.09;177713;1265;57967;-89
2023/05/31 11:34:31;;;;;;;8.30;2.80;;;;;;;25.14;49.30;100865.75;177041;1269;46110;-89
2023/05/31 11:38:33;;;;;;;5.90;1.60;;;;;;;25.29;51.67;100862.70;177303;1267;46011;-89
2023/05/31 11:42:37;;;;;;;4.10;2.20;;;;;;;25.45;53.11;100862.86;177692;1264;46080;-89
2023/05/31 11:46:46;;;;;;;2.40;1.70;;;;;;;25.55;48.45;100858.05;177616;1265;45985;-89
2023/05/31 11:50:49;;;;;;;3.50;1.90;;;;;;;25.53;48.36;100854.92;177500;1266;58324;-89
2023/05/31 11:54:54;;;;;;;3.30;2.00;;;;;;;25.43;47.47;100847.06;177207;1265;46032;-89
2023/05/31 11:58:58;;;;;;;4.20;1.40;;;;;;;25.46;48.75;100845.48;177319;1267;46010;-89
2023/05/31 12:03:04;;;;;;;5.90;2.00;;;;;;;25.47;46.86;100842.47;177038;1265;46133;-89
2023/05/31 12:07:09;;;;;;;8.60;2.70;;;;;;;25.51;47.79;100840.39;177617;1265;46084;-89
2023/05/31 12:11:11;;;;;;;3.30;1.50;;;;;;;25.59;48.39;100836.14;177196;1265;59393;-89
2023/05/31 12:15:16;;;;;;;2.10;1.50;;;;;;;25.73;49.43;100826.72;177079;1267;45970;-89
2023/05/31 12:19:18;;;;;;;32.40;7.40;;;;;;;25.82;47.96;100825.86;176919;1265;46112;-89
2023/05/31 12:23:21;;;;;;;44.50;7.90;;;;;;;25.89;50.78;100823.20;176813;1267;46156;-89
2023/05/31 12:27:26;;;;;;;4.70;1.70;;;;;;;25.99;46.15;100813.67;178981;1265;44075;-89
2023/05/31 12:31:47;;;;;;;3.40;1.40;;;;;;;26.01;45.54;100811.16;176918;1265;58347;-88
2023/05/31 12:35:49;;;;;;;2.30;1.20;;;;;;;26.11;46.30;100804.06;176798;1265;46005;-89
2023/05/31 12:40:08;;;;;;;3.70;1.40;;;;;;;26.23;46.76;100802.88;177000;1265;45967;-89
2023/05/31 12:44:20;;;;;;;2.10;1.30;;;;;;;26.26;45.94;100797.66;177296;1267;44303;-89
2023/05/31 12:48:25;;;;;;;7.50;1.40;;;;;;;26.12;45.23;100790.18;177091;1265;46004;-88
2023/05/31 12:52:33;;;;;;;8.90;2.80;;;;;;;26.06;45.94;100788.08;178268;1264;57948;-88
2023/05/31 12:56:35;;;;;;;2.90;1.50;;;;;;;26.00;45.02;100792.26;178054;1267;46062;-88
2023/05/31 13:00:37;;;;;;;2.20;1.60;;;;;;;25.96;43.51;100791.67;177988;1269;46173;-88
2023/05/31 13:04:39;;;;;;;4.50;1.50;;;;;;;25.94;44.63;100786.36;177781;1264;46050;-88
2023/05/31 13:08:44;;;;;;;3.20;1.80;;;;;;;26.00;44.14;100779.88;177781;1264;46414;-89
2023/05/31 13:12:46;;;;;;;3.70;1.00;;;;;;;26.12;45.81;100776.39;177438;1267;58018;-89
2023/05/31 13:16:49;;;;;;;2.90;1.90;;;;;;;26.29;46.27;100771.83;177841;1266;46160;-91
2023/05/31 13:20:51;;;;;;;6.00;2.20;;;;;;;26.37;45.91;100767.42;178134;1265;46120;-90
2023/05/31 13:24:53;;;;;;;2.20;1.30;;;;;;;26.41;45.94;100758.09;178704;1263;45955;-90
2023/05/31 13:28:57;;;;;;;2.30;1.10;;;;;;;26.13;45.82;100760.26;177623;1267;46014;-90
2023/05/31 13:32:59;;;;;;;6.90;2.20;;;;;;;26.26;49.84;100757.51;178211;1267;59566;-90
2023/05/31 13:41:52;;;;;;;6.30;1.70;;;;;;;26.44;46.84;100747.54;181127;1263;81068;-54
2023/05/31 13:45:55;;;;;;;2.90;1.50;;;;;;;26.55;43.64;100739.73;181146;1265;43205;-54
2023/05/31 13:49:57;;;;;;;10.00;2.30;;;;;;;26.72;45.11;100732.30;181148;1264;43177;-54
2023/05/31 13:53:59;;;;;;;2.50;1.60;;;;;;;26.89;47.20;100725.80;181129;1265;58174;-54
2023/05/31 13:58:00;;;;;;;68.70;10.00;;;;;;;27.09;44.63;100720.52;181205;1265;43180;-54
2023/05/31 14:02:02;;;;;;;7.30;1.90;;;;;;;27.18;45.89;100717.20;181151;1266;43767;-54
2023/05/31 14:06:04;;;;;;;2.80;1.70;;;;;;;27.28;45.97;100712.89;181088;1267;43634;-56
2023/05/31 14:10:06;;;;;;;4.30;1.80;;;;;;;27.26;46.03;100709.39;181136;1265;43124;-55
2023/05/31 14:14:08;;;;;;;1.50;1.20;;;;;;;27.27;46.17;100705.73;181143;1264;58352;-54
2023/05/31 14:18:10;;;;;;;2.70;1.30;;;;;;;27.45;46.16;100699.26;181171;1266;43445;-54
2023/05/31 14:22:12;;;;;;;2.50;1.60;;;;;;;27.58;48.29;100693.05;181129;1265;43012;-54
2023/05/31 14:26:26;;;;;;;3.00;1.70;;;;;;;27.70;46.35;100685.95;181177;1265;43909;-55
2023/05/31 14:30:27;;;;;;;2.30;1.20;;;;;;;27.85;46.01;100677.05;181195;1266;43033;-55
2023/05/31 14:34:29;;;;;;;5.00;1.80;;;;;;;27.85;45.43;100676.57;181203;1264;57159;-55
2023/05/31 14:38:56;;;;;;;1.70;1.10;;;;;;;27.78;45.10;100673.40;181180;1264;44025;-54
2023/05/31 14:42:57;;;;;;;1.30;0.90;;;;;;;27.70;44.83;100666.15;181177;1265;43045;-54
2023/05/31 14:46:59;;;;;;;1.90;1.50;;;;;;;27.69;43.15;100659.80;181175;1264;43059;-56
2023/05/31 14:51:01;;;;;;;11.30;2.60;;;;;;;27.81;45.07;100659.23;181170;1264;43010;-54
2023/05/31 14:55:05;;;;;;;4.60;1.50;;;;;;;27.85;43.26;100655.34;181099;1265;58092;-55
2023/05/31 14:59:07;;;;;;;2.70;1.90;;;;;;;27.64;42.78;100649.88;181190;1265;43813;-55
2023/05/31 15:03:09;;;;;;;2.90;1.50;;;;;;;27.61;42.86;100652.70;181116;1265;43115;-55
2023/05/31 15:07:11;;;;;;;3.20;1.20;;;;;;;27.71;44.82;100650.67;181194;1265;43677;-56
2023/05/31 15:11:13;;;;;;;11.00;1.90;;;;;;;27.88;43.58;100646.52;181181;1265;43431;-55
2023/05/31 15:15:15;;;;;;;2.40;1.50;;;;;;;27.93;44.31;100643.26;181169;1264;58287;-56
2023/05/31 15:19:17;;;;;;;2.60;1.80;;;;;;;28.05;46.59;100644.29;181217;1264;43049;-55
2023/05/31 15:23:19;;;;;;;3.50;1.70;;;;;;;28.15;46.88;100636.73;181158;1264;43770;-56
2023/05/31 15:27:21;;;;;;;4.20;1.70;;;;;;;28.15;46.06;100630.81;180649;1266;83123;-87
2023/05/31 15:31:24;;;;;;;2.70;1.90;;;;;;;28.05;44.23;100624.10;180668;1264;43928;-86
2023/05/31 15:35:27;;;;;;;4.90;1.40;;;;;;;27.88;44.53;100626.73;180655;1265;58056;-87
2023/05/31 15:39:29;;;;;;;2.30;0.90;;;;;;;27.81;46.45;100622.91;180601;1266;43839;-87
2023/05/31 15:43:34;;;;;;;8.50;2.80;;;;;;;27.84;44.60;100621.27;180609;1266;43855;-86
2023/05/31 15:47:36;;;;;;;1.30;0.80;;;;;;;27.76;42.71;100617.89;180617;1264;43846;-87
2023/05/31 15:51:39;;;;;;;1.90;1.60;;;;;;;27.60;45.18;100613.33;180628;1266;43882;-87
2023/05/31 15:55:44;;;;;;;6.50;1.80;;;;;;;27.55;47.46;100613.19;180637;1265;59435;-87
2023/05/31 15:59:46;;;;;;;3.40;1.10;;;;;;;27.46;50.31;100610.74;180670;1267;43882;-87
2023/05/31 16:17:29;;;;;;;11.70;1.80;;;;;;;27.34;48.53;100594.56;175325;1284;579611;-86
2023/05/31 16:21:33;;;;;;;3.70;1.90;;;;;;;27.45;47.90;100587.10;178385;1262;167412;-86
2023/05/31 16:25:36;;;;;;;3.90;1.40;;;;;;;27.40;47.30;100578.47;178758;1258;46027;-86
2023/05/31 16:29:40;;;;;;;1.90;1.40;;;;;;;27.39;48.53;100574.58;179189;1259;45761;-86
2023/05/31 16:33:43;;;;;;;6.20;2.00;;;;;;;27.22;48.88;100573.27;178814;1262;45521;-86
2023/05/31 16:37:47;;;;;;;1.90;1.50;;;;;;;26.95;51.68;100573.20;178896;1259;46026;-86
2023/05/31 16:41:50;;;;;;;4.30;2.10;;;;;;;26.74;51.09;100573.11;178968;1259;59312;-86
2023/05/31 16:45:54;;;;;;;2.90;1.60;;;;;;;26.58;51.44;100569.30;179475;1259;46463;-86
2023/05/31 16:49:57;;;;;;;2.10;1.40;;;;;;;26.51;51.13;100562.31;178900;1259;44730;-87
2023/05/31 16:54:01;;;;;;;2.10;1.80;;;;;;;26.36;51.56;100558.84;179478;1259;46078;-86
2023/05/31 16:58:04;;;;;;;2.90;1.20;;;;;;;26.17;51.34;100551.42;179177;1259;45313;-85
2023/05/31 17:02:08;;;;;;;4.50;1.30;;;;;;;25.99;52.91;100558.30;179003;1258;60142;-86
2023/05/31 17:06:12;;;;;;;1.50;1.40;;;;;;;25.89;53.71;100551.87;178879;1257;46139;-86
2023/05/31 17:10:15;;;;;;;4.10;2.10;;;;;;;25.73;53.63;100548.68;179340;1259;46015;-86
2023/05/31 17:14:19;;;;;;;6.80;2.00;;;;;;;25.65;54.42;100548.33;178643;1259;46075;-86
2023/05/31 17:18:23;;;;;;;5.50;1.70;;;;;;;25.49;53.74;100544.80;179178;1256;46144;-87
2023/05/31 17:22:27;;;;;;;3.50;1.50;;;;;;;25.34;54.50;100540.64;180121;1255;59809;-85
2023/05/31 17:26:30;;;;;;;2.80;1.30;;;;;;;25.23;57.16;100540.41;179816;1259;46214;-85
2023/05/31 17:30:34;;;;;;;5.20;1.10;;;;;;;25.15;59.63;100536.14;180395;1260;46118;-86
2023/05/31 17:34:37;;;;;;;2.50;1.50;;;;;;;25.07;60.92;100535.71;179349;1256;46007;-87
2023/05/31 17:38:41;;;;;;;4.60;2.00;;;;;;;24.94;62.16;100535.85;179891;1255;44583;-87
2023/05/31 17:42:48;;;;;;;5.30;1.70;;;;;;;24.78;62.91;100532.01;179428;1256;58247;-88
2023/05/31 17:46:52;;;;;;;5.70;2.00;;;;;;;24.64;64.99;100529.93;179824;1258;46007;-87
2023/05/31 17:50:56;;;;;;;3.50;1.70;;;;;;;24.50;65.24;100525.70;179809;1259;46133;-88
2023/05/31 17:55:01;;;;;;;5.20;3.10;;;;;;;24.35;65.74;100520.50;179009;1256;46370;-87
2023/05/31 17:59:04;;;;;;;11.90;3.80;;;;;;;24.19;65.89;100516.71;179327;1255;46577;-88
2023/05/31 18:03:08;;;;;;;25.60;5.70;;;;;;;24.02;66.24;100517.73;179681;1258;57937;-87
2023/05/31 18:07:12;;;;;;;12.50;2.70;;;;;;;23.85;67.37;100516.32;179722;1255;46024;-89
2023/05/31 18:11:16;;;;;;;20.10;5.30;;;;;;;23.66;67.49;100521.08;179365;1255;45238;-88
2023/05/31 18:15:19;;;;;;;10.40;3.70;;;;;;;23.48;67.74;100524.88;179922;1255;46174;-88
2023/05/31 18:19:23;;;;;;;4.50;3.00;;;;;;;23.31;67.08;100522.02;179345;1256;45962;-87
2023/05/31 18:23:26;;;;;;;3.30;1.80;;;;;;;23.11;66.55;100516.02;179517;1255;58788;-87
2023/05/31 18:27:30;;;;;;;24.40;5.00;;;;;;;22.88;65.92;100514.60;179628;1255;46100;-88
2023/05/31 18:31:33;;;;;;;9.50;2.50;;;;;;;22.62;66.46;100505.92;179881;1255;46029;-88
2023/05/31 18:35:37;;;;;;;9.00;2.50;;;;;;;22.28;66.48;100507.01;179577;1260;48534;-87
2023/05/31 18:39:42;;;;;;;5.00;1.60;;;;;;;21.90;66.25;100504.73;178937;1255;46092;-87
2023/05/31 18:43:45;;;;;;;4.40;1.60;;;;;;;21.49;66.77;100504.21;180422;1255;58506;-86
2023/05/31 18:47:49;;;;;;;6.40;2.40;;;;;;;21.07;67.34;100500.92;179924;1255;44067;-87
2023/05/31 18:51:53;;;;;;;1.80;1.50;;;;;;;20.66;68.23;100504.22;179740;1257;46020;-86
2023/05/31 18:55:56;;;;;;;4.70;1.80;;;;;;;20.26;69.16;100504.92;179917;1260;45962;-86
2023/05/31 18:59:59;;;;;;;3.00;1.80;;;;;;;19.87;70.12;100508.81;179619;1258;45973;-86
2023/05/31 19:04:03;;;;;;;5.20;2.70;;;;;;;19.50;70.68;100511.36;179704;1260;59256;-86
2023/05/31 19:08:06;;;;;;;2.60;1.50;;;;;;;19.14;71.63;100514.05;179469;1256;46066;-85
2023/05/31 19:12:10;;;;;;;4.50;1.70;;;;;;;18.80;72.57;100511.08;179873;1260;43996;-85
2023/05/31 19:16:32;;;;;;;5.60;2.00;;;;;;;18.47;73.89;100513.97;179558;1255;46111;-85
2023/05/31 19:20:37;;;;;;;1.50;1.40;;;;;;;18.22;75.59;100512.52;179936;1257;45244;-85
2023/05/31 19:24:40;;;;;;;6.20;2.30;;;;;;;18.04;76.84;100511.61;178954;1256;59565;-84
2023/05/31 19:28:43;;;;;;;2.00;1.60;;;;;;;17.91;77.77;100511.52;178628;1257;45983;-85